createdAt,value
2022-08-17T00:00:44.136Z,67.20
2022-08-17T00:03:09.008Z,67.37
2022-08-17T00:05:41.379Z,67.38
2022-08-17T00:08:07.895Z,67.32
2022-08-17T00:10:34.305Z,67.62
2022-08-17T00:13:04.396Z,67.78
2022-08-17T00:15:30.591Z,67.68
2022-08-17T00:17:56.941Z,67.67
2022-08-17T00:20:30.619Z,67.81
2022-08-17T00:23:19.404Z,67.81
2022-08-17T00:25:46.168Z,67.71
2022-08-17T00:28:15.408Z,67.93
2022-08-17T00:30:51.284Z,67.80
2022-08-17T00:33:25.563Z,67.98
2022-08-17T00:35:52.556Z,67.78
2022-08-17T00:38:19.003Z,67.93
2022-08-17T00:40:46.948Z,67.82
2022-08-17T00:43:17.096Z,67.90
2022-08-17T00:45:43.780Z,67.93
2022-08-17T00:48:11.557Z,67.90
2022-08-17T00:51:07.057Z,68.09
2022-08-17T00:53:34.453Z,68.13
2022-08-17T00:56:01.419Z,67.96
2022-08-17T00:58:30.452Z,67.88
2022-08-17T01:01:04.141Z,68.02
2022-08-17T01:03:30.524Z,68.12
2022-08-17T01:05:59.219Z,68.03
2022-08-17T01:08:26.987Z,68.07
2022-08-17T01:11:00.186Z,68.44
2022-08-17T01:13:31.283Z,68.28
2022-08-17T01:15:59.444Z,68.22
2022-08-17T01:18:25.833Z,68.63
2022-08-17T01:20:53.268Z,68.37
2022-08-17T01:23:21.131Z,68.54
2022-08-17T01:25:51.338Z,68.40
2022-08-17T01:28:53.095Z,68.65
2022-08-17T01:31:04.921Z,68.55
2022-08-17T01:33:31.458Z,68.47
2022-08-17T01:35:57.632Z,68.48
2022-08-17T01:38:27.329Z,68.55
2022-08-17T01:40:57.358Z,68.50
2022-08-17T01:43:25.368Z,68.62
2022-08-17T01:46:02.789Z,68.76
2022-08-17T01:48:31.691Z,68.79
2022-08-17T01:50:58.751Z,68.75
2022-08-17T01:53:32.608Z,68.76
2022-08-17T01:55:59.972Z,68.85
2022-08-17T01:58:26.285Z,68.82
2022-08-17T02:01:00.841Z,68.82
2022-08-17T02:03:27.988Z,69.18
2022-08-17T02:05:54.513Z,69.06
2022-08-17T02:08:21.011Z,68.98
2022-08-17T02:11:11.159Z,69.03
2022-08-17T02:13:38.184Z,68.86
2022-08-17T02:16:04.520Z,69.29
2022-08-17T02:18:30.697Z,69.22
2022-08-17T02:20:56.945Z,69.16
2022-08-17T02:23:23.759Z,69.15
2022-08-17T02:25:51.073Z,69.22
2022-08-17T02:28:17.805Z,69.30
2022-08-17T02:31:00.765Z,69.24
2022-08-17T02:33:41.941Z,69.35
2022-08-17T02:36:10.201Z,69.29
2022-08-17T02:38:36.643Z,69.43
2022-08-17T02:41:03.005Z,69.54
2022-08-17T02:43:29.238Z,69.65
2022-08-17T02:45:55.527Z,69.52
2022-08-17T02:48:31.149Z,69.70
2022-08-17T02:50:58.743Z,69.64
2022-08-17T02:53:25.698Z,69.61
2022-08-17T02:55:52.307Z,69.59
2022-08-17T02:58:18.882Z,69.59
2022-08-17T03:01:03.070Z,69.80
2022-08-17T03:03:29.359Z,69.82
2022-08-17T03:05:55.760Z,69.75
2022-08-17T03:08:22.617Z,69.85
2022-08-17T03:10:49.775Z,69.84
2022-08-17T03:13:16.199Z,69.89
2022-08-17T03:15:44.534Z,69.95
2022-08-17T03:18:24.497Z,70.00
2022-08-17T03:20:56.289Z,69.85
2022-08-17T03:23:23.946Z,70.05
2022-08-17T03:25:53.389Z,69.98
2022-08-17T03:28:20.124Z,69.90
2022-08-17T03:30:46.456Z,69.94
2022-08-17T03:33:12.906Z,70.03
2022-08-17T03:35:39.757Z,70.25
2022-08-17T03:38:06.311Z,70.39
2022-08-17T03:40:55.354Z,70.15
2022-08-17T03:43:19.413Z,70.17
2022-08-17T03:46:04.264Z,70.38
2022-08-17T03:48:51.646Z,70.33
2022-08-17T03:51:40.317Z,70.43
2022-08-17T03:54:25.623Z,70.43
2022-08-17T03:56:59.013Z,70.42
2022-08-17T03:59:25.282Z,70.26
2022-08-17T04:01:53.146Z,70.28
2022-08-17T04:04:20.176Z,70.47
2022-08-17T04:06:54.020Z,70.31
2022-08-17T04:09:20.292Z,70.38
2022-08-17T04:11:46.502Z,70.71
2022-08-17T04:14:12.768Z,70.54
2022-08-17T04:16:38.965Z,70.65
2022-08-17T04:19:05.179Z,70.61
2022-08-17T04:21:31.373Z,70.60
2022-08-17T04:23:58.615Z,70.74
2022-08-17T04:26:53.598Z,70.86
2022-08-17T04:29:11.120Z,70.75
2022-08-17T04:31:39.018Z,70.53
2022-08-17T04:34:05.331Z,70.40
2022-08-17T04:36:31.581Z,70.61
2022-08-17T04:38:58.350Z,70.76
2022-08-17T04:41:43.385Z,70.71
2022-08-17T04:44:11.004Z,70.86
2022-08-17T04:46:37.628Z,71.13
2022-08-17T04:49:05.442Z,71.05
2022-08-17T04:51:35.942Z,70.95
2022-08-17T04:54:03.977Z,70.98
2022-08-17T04:56:30.320Z,71.06
2022-08-17T04:58:57.994Z,70.81
2022-08-17T05:01:24.881Z,71.12
2022-08-17T05:03:52.076Z,70.97
2022-08-17T05:06:18.369Z,70.95
2022-08-17T05:08:44.551Z,70.76
2022-08-17T05:11:11.699Z,70.84
2022-08-17T05:13:37.975Z,70.71
2022-08-17T05:16:04.527Z,70.62
2022-08-17T05:18:30.736Z,70.44
2022-08-17T05:20:57.331Z,70.25
2022-08-17T05:23:24.599Z,70.30
2022-08-17T05:25:51.889Z,70.11
2022-08-17T05:28:20.018Z,70.21
2022-08-17T05:30:50.946Z,70.23
2022-08-17T05:33:18.930Z,70.03
2022-08-17T05:35:46.537Z,69.82
2022-08-17T05:38:13.379Z,69.73
2022-08-17T05:40:39.760Z,69.58
2022-08-17T05:43:10.260Z,69.49
2022-08-17T05:45:54.592Z,69.30
2022-08-17T05:48:21.492Z,69.18
2022-08-17T05:51:14.908Z,69.16
2022-08-17T05:54:09.234Z,69.06
2022-08-17T05:56:47.616Z,68.83
2022-08-17T05:59:35.264Z,68.85
2022-08-17T06:02:04.567Z,68.58
2022-08-17T06:04:49.495Z,68.54
2022-08-17T06:07:24.684Z,68.42
2022-08-17T06:09:50.955Z,68.50
2022-08-17T06:12:26.271Z,68.50
2022-08-17T06:15:06.712Z,68.34
2022-08-17T06:17:32.858Z,67.85
2022-08-17T06:20:00.348Z,68.08
2022-08-17T06:22:27.795Z,68.16
2022-08-17T06:24:56.237Z,67.74
2022-08-17T06:27:25.821Z,67.85
2022-08-17T06:29:53.281Z,67.73
2022-08-17T06:32:19.626Z,67.54
2022-08-17T06:34:45.932Z,66.94
2022-08-17T06:37:12.206Z,66.77
2022-08-17T06:39:38.518Z,67.02
2022-08-17T06:42:54.881Z,66.57
2022-08-17T06:45:07.210Z,66.25
2022-08-17T06:47:33.335Z,66.13
2022-08-17T06:50:04.904Z,66.09
2022-08-17T06:52:45.916Z,66.30
2022-08-17T06:55:17.810Z,65.74
2022-08-17T06:57:46.423Z,65.52
2022-08-17T07:00:14.328Z,65.23
2022-08-17T07:02:54.952Z,65.19
2022-08-17T07:05:22.208Z,64.63
2022-08-17T07:08:02.977Z,64.76
2022-08-17T07:10:37.461Z,64.29
2022-08-17T07:13:28.723Z,64.12
2022-08-17T07:15:57.996Z,64.12
2022-08-17T07:18:24.857Z,63.65
2022-08-17T07:20:51.614Z,63.27
2022-08-17T07:23:22.741Z,62.81
2022-08-17T07:25:49.171Z,63.03
2022-08-17T07:28:18.766Z,62.56
2022-08-17T07:30:48.494Z,62.62
2022-08-17T07:33:20.105Z,62.47
2022-08-17T07:35:47.708Z,61.84
2022-08-17T07:38:25.008Z,61.53
2022-08-17T07:41:03.153Z,61.37
2022-08-17T07:43:31.139Z,61.35
2022-08-17T07:46:17.555Z,61.12
2022-08-17T07:48:45.886Z,60.83
2022-08-17T07:51:14.143Z,60.17
2022-08-17T07:53:40.968Z,59.87
2022-08-17T07:56:07.675Z,59.68
2022-08-17T07:58:33.930Z,59.20
2022-08-17T08:01:10.865Z,59.85
2022-08-17T08:03:42.336Z,59.01
2022-08-17T08:06:20.080Z,58.81
2022-08-17T08:08:49.976Z,57.87
2022-08-17T08:11:27.811Z,57.39
2022-08-17T08:13:53.998Z,57.27
2022-08-17T08:16:25.722Z,57.31
2022-08-17T08:18:55.317Z,56.96
2022-08-17T08:21:36.283Z,56.26
2022-08-17T08:24:09.269Z,55.42
2022-08-17T08:26:46.974Z,55.80
2022-08-17T08:29:22.939Z,55.50
2022-08-17T08:31:52.804Z,55.38
2022-08-17T08:34:59.194Z,54.89
2022-08-17T08:37:35.726Z,54.82
2022-08-17T08:40:07.831Z,54.53
2022-08-17T08:42:55.846Z,54.11
2022-08-17T08:45:22.421Z,53.56
2022-08-17T08:47:54.594Z,53.34
2022-08-17T08:50:37.110Z,52.95
2022-08-17T08:53:18.511Z,52.71
2022-08-17T08:55:58.054Z,52.52
2022-08-17T08:58:31.521Z,51.77
2022-08-17T09:01:13.096Z,51.66
2022-08-17T09:03:53.841Z,50.06
2022-08-17T09:06:40.394Z,49.94
2022-08-17T09:09:06.764Z,49.42
2022-08-17T09:12:01.952Z,49.42
2022-08-17T09:14:45.114Z,46.64
2022-08-17T09:17:18.732Z,46.17
2022-08-17T09:19:50.038Z,45.13
2022-08-17T09:22:16.888Z,43.47
2022-08-17T09:24:44.126Z,41.55
2022-08-17T09:27:12.715Z,39.22
2022-08-17T09:29:42.184Z,39.41
2022-08-17T09:32:16.963Z,38.03
2022-08-17T09:34:48.508Z,37.38
2022-08-17T09:37:25.634Z,36.58
2022-08-17T09:39:57.923Z,35.75
2022-08-17T09:42:32.871Z,35.94
2022-08-17T09:45:06.369Z,35.18
2022-08-17T09:47:32.497Z,34.20
2022-08-17T09:50:09.089Z,32.95
2022-08-17T09:52:35.435Z,31.14
2022-08-17T09:55:01.957Z,30.01
2022-08-17T09:57:43.596Z,29.73
2022-08-17T10:00:15.719Z,28.99
2022-08-17T10:03:08.974Z,27.54
2022-08-17T10:05:56.334Z,26.27
2022-08-17T10:08:30.157Z,25.46
2022-08-17T10:10:59.213Z,24.46
2022-08-17T10:13:32.219Z,24.07
2022-08-17T10:16:00.647Z,23.25
2022-08-17T10:18:45.678Z,22.86
2022-08-17T10:21:31.436Z,22.46
2022-08-17T10:24:24.476Z,21.45
2022-08-17T10:26:56.490Z,20.94
2022-08-17T10:29:48.541Z,20.41
2022-08-17T10:32:31.587Z,19.24
2022-08-17T10:35:01.002Z,19.04
2022-08-17T10:37:49.196Z,18.98
2022-08-17T10:40:19.058Z,18.72
2022-08-17T10:42:49.762Z,17.98
2022-08-17T10:45:22.891Z,17.40
2022-08-17T10:48:20.747Z,17.62
2022-08-17T10:50:47.464Z,17.43
2022-08-17T10:53:31.994Z,17.72
2022-08-17T10:56:24.611Z,18.50
2022-08-17T10:58:53.329Z,19.54
2022-08-17T11:01:28.873Z,19.56
2022-08-17T11:03:56.961Z,19.86
2022-08-17T11:06:23.295Z,19.90
2022-08-17T11:09:08.266Z,20.15
2022-08-17T11:11:39.906Z,20.32
2022-08-17T11:14:24.438Z,20.68
2022-08-17T11:17:05.795Z,20.95
2022-08-17T11:19:31.943Z,21.22
2022-08-17T11:21:58.078Z,21.95
2022-08-17T11:24:29.866Z,22.46
2022-08-17T11:27:05.292Z,22.95
2022-08-17T11:29:38.297Z,23.49
2022-08-17T11:32:12.623Z,22.96
2022-08-17T11:34:39.511Z,23.97
2022-08-17T11:37:14.921Z,24.23
2022-08-17T11:39:44.647Z,24.21
2022-08-17T11:42:11.164Z,24.95
2022-08-17T11:44:41.087Z,24.96
2022-08-17T11:47:32.694Z,25.18
2022-08-17T11:50:32.783Z,25.87
2022-08-17T11:52:58.967Z,26.37
2022-08-17T11:55:38.418Z,26.58
2022-08-17T11:58:06.817Z,26.77
2022-08-17T12:00:40.932Z,27.41
2022-08-17T12:03:21.917Z,27.47
2022-08-17T12:05:48.593Z,27.78
2022-08-17T12:08:17.941Z,27.87
2022-08-17T12:10:58.961Z,28.35
2022-08-17T12:13:27.347Z,28.46
2022-08-17T12:15:57.057Z,29.02
2022-08-17T12:18:29.235Z,29.76
2022-08-17T12:21:15.715Z,29.89
2022-08-17T12:23:50.488Z,30.42
2022-08-17T12:26:18.849Z,30.66
2022-08-17T12:28:49.675Z,30.89
2022-08-17T12:31:21.903Z,31.02
2022-08-17T12:33:49.375Z,31.27
2022-08-17T12:36:16.700Z,31.84
2022-08-17T12:38:48.915Z,32.05
2022-08-17T12:41:28.291Z,32.42
2022-08-17T12:44:00.970Z,32.85
2022-08-17T12:46:28.268Z,33.10
2022-08-17T12:49:09.762Z,33.25
2022-08-17T12:51:41.315Z,33.37
2022-08-17T12:54:07.501Z,33.82
2022-08-17T12:56:33.789Z,33.99
2022-08-17T12:59:01.458Z,34.14
2022-08-17T13:01:28.662Z,34.35
2022-08-17T13:03:56.476Z,34.49
2022-08-17T13:06:32.852Z,34.19
2022-08-17T13:09:30.969Z,34.62
2022-08-17T13:12:02.837Z,34.64
2022-08-17T13:14:32.535Z,34.72
2022-08-17T13:17:01.062Z,34.59
2022-08-17T13:19:39.753Z,34.97
2022-08-17T13:22:09.791Z,35.28
2022-08-17T13:24:38.073Z,35.34
2022-08-17T13:27:08.628Z,35.56
2022-08-17T13:29:34.979Z,35.73
2022-08-17T13:32:05.956Z,35.71
2022-08-17T13:34:59.594Z,35.66
2022-08-17T13:37:34.492Z,35.82
2022-08-17T13:40:12.735Z,36.07
2022-08-17T13:42:52.072Z,36.26
2022-08-17T13:45:36.720Z,36.40
2022-08-17T13:48:08.050Z,36.27
2022-08-17T13:50:39.621Z,36.56
2022-08-17T13:53:25.913Z,36.68
2022-08-17T13:55:55.394Z,36.51
2022-08-17T13:58:22.486Z,36.39
2022-08-17T14:00:49.976Z,36.23
2022-08-17T14:03:16.211Z,36.55
2022-08-17T14:05:42.952Z,36.51
2022-08-17T14:08:10.600Z,36.65
2022-08-17T14:10:36.859Z,36.77
2022-08-17T14:13:03.309Z,37.19
2022-08-17T14:15:56.330Z,37.17
2022-08-17T14:18:18.276Z,36.98
2022-08-17T14:21:04.505Z,36.95
2022-08-17T14:23:32.204Z,37.51
2022-08-17T14:25:59.125Z,37.44
2022-08-17T14:28:25.272Z,37.72
2022-08-17T14:30:54.798Z,37.55
2022-08-17T14:33:22.129Z,37.64
2022-08-17T14:35:50.865Z,37.52
2022-08-17T14:38:18.149Z,37.81
2022-08-17T14:40:44.930Z,37.48
2022-08-17T14:43:11.350Z,37.65
2022-08-17T14:45:37.616Z,37.54
2022-08-17T14:48:06.847Z,37.73
2022-08-17T14:50:35.859Z,37.56
2022-08-17T14:53:03.886Z,38.05
2022-08-17T14:55:30.490Z,38.14
2022-08-17T14:57:56.914Z,38.58
2022-08-17T15:00:23.148Z,38.81
2022-08-17T15:02:53.018Z,38.90
2022-08-17T15:05:21.372Z,39.13
2022-08-17T15:07:47.675Z,39.50
2022-08-17T15:10:14.571Z,39.53
2022-08-17T15:12:41.238Z,39.87
2022-08-17T15:15:08.905Z,40.05
2022-08-17T15:17:45.234Z,39.99
2022-08-17T15:20:19.576Z,40.37
2022-08-17T15:22:48.697Z,40.23
2022-08-17T15:25:16.147Z,40.41
2022-08-17T15:27:42.429Z,41.00
2022-08-17T15:30:09.402Z,40.96
2022-08-17T15:32:37.377Z,41.17
2022-08-17T15:35:04.710Z,41.24
2022-08-17T15:37:33.905Z,41.63
2022-08-17T15:40:00.687Z,41.79
2022-08-17T15:42:27.320Z,41.84
2022-08-17T15:44:56.782Z,42.15
2022-08-17T15:47:23.771Z,42.25
2022-08-17T15:49:50.215Z,42.44
2022-08-17T15:52:26.526Z,42.72
2022-08-17T15:54:56.963Z,42.91
2022-08-17T15:57:25.990Z,43.25
2022-08-17T15:59:55.182Z,43.32
2022-08-17T16:03:44.866Z,43.56
2022-08-17T16:05:21.321Z,43.79
2022-08-17T16:07:50.609Z,44.07
2022-08-17T16:10:19.184Z,44.36
2022-08-17T16:12:46.693Z,44.69
2022-08-17T16:15:13.139Z,45.12
2022-08-17T16:17:40.812Z,45.19
2022-08-17T16:20:08.297Z,45.43
2022-08-17T16:22:36.081Z,45.77
2022-08-17T16:25:04.612Z,45.93
2022-08-17T16:27:30.810Z,46.10
2022-08-17T16:29:57.251Z,46.31
2022-08-17T16:32:31.797Z,46.63
2022-08-17T16:35:07.385Z,46.54
2022-08-17T16:37:34.318Z,46.65
2022-08-17T16:40:01.439Z,46.93
2022-08-17T16:42:30.838Z,46.94
2022-08-17T16:45:03.190Z,46.99
2022-08-17T16:47:29.908Z,47.27
2022-08-17T16:49:56.217Z,47.60
2022-08-17T16:52:32.448Z,47.72
2022-08-17T16:55:00.205Z,48.00
2022-08-17T16:57:26.657Z,48.34
2022-08-17T16:59:53.216Z,48.51
2022-08-17T17:02:36.744Z,48.63
2022-08-17T17:05:05.617Z,49.02
2022-08-17T17:07:33.078Z,49.19
2022-08-17T17:10:03.427Z,49.42
2022-08-17T17:12:34.973Z,49.44
2022-08-17T17:15:21.961Z,49.60
2022-08-17T17:17:48.920Z,49.88
2022-08-17T17:20:15.269Z,49.94
2022-08-17T17:23:00.189Z,50.21
2022-08-17T17:25:38.856Z,50.46
2022-08-17T17:28:07.689Z,50.64
2022-08-17T17:30:39.335Z,50.74
2022-08-17T17:33:06.490Z,50.89
2022-08-17T17:35:34.253Z,51.16
2022-08-17T17:38:04.769Z,51.54
2022-08-17T17:40:41.820Z,51.75
2022-08-17T17:43:37.060Z,51.69
2022-08-17T17:46:28.339Z,51.78
2022-08-17T17:48:54.770Z,51.83
2022-08-17T17:52:06.662Z,51.74
2022-08-17T17:54:20.437Z,51.98
2022-08-17T17:56:52.033Z,52.07
2022-08-17T17:59:44.130Z,52.15
2022-08-17T18:02:39.398Z,52.25
2022-08-17T18:05:08.674Z,52.63
2022-08-17T18:07:40.382Z,52.63
2022-08-17T18:10:29.619Z,52.97
2022-08-17T18:13:02.919Z,53.10
2022-08-17T18:15:31.835Z,53.20
2022-08-17T18:17:59.896Z,53.44
2022-08-17T18:20:32.461Z,53.66
2022-08-17T18:23:09.455Z,53.58
2022-08-17T18:25:44.877Z,53.97
2022-08-17T18:28:25.234Z,54.03
2022-08-17T18:31:10.234Z,54.23
2022-08-17T18:33:37.671Z,54.39
2022-08-17T18:36:04.062Z,54.60
2022-08-17T18:38:34.742Z,54.73
2022-08-17T18:41:23.038Z,55.00
2022-08-17T18:44:12.370Z,55.07
2022-08-17T18:46:39.456Z,55.28
2022-08-17T18:49:07.863Z,55.50
2022-08-17T18:51:40.558Z,55.69
2022-08-17T18:54:19.857Z,55.72
2022-08-17T18:56:58.853Z,56.00
2022-08-17T18:59:41.596Z,56.12
2022-08-17T19:02:18.670Z,56.31
2022-08-17T19:04:58.982Z,56.45
2022-08-17T19:07:28.721Z,56.43
2022-08-17T19:09:58.169Z,56.66
2022-08-17T19:12:27.669Z,56.69
2022-08-17T19:14:55.241Z,56.90
2022-08-17T19:17:23.865Z,57.06
2022-08-17T19:19:53.640Z,57.21
2022-08-17T19:22:28.727Z,57.26
2022-08-17T19:25:10.501Z,57.37
2022-08-17T19:27:41.952Z,57.50
2022-08-17T19:30:24.365Z,57.58
2022-08-17T19:32:51.817Z,57.75
2022-08-17T19:35:19.524Z,57.94
2022-08-17T19:37:55.780Z,57.99
2022-08-17T19:40:51.249Z,58.27
2022-08-17T19:43:14.257Z,58.25
2022-08-17T19:45:46.570Z,58.51
2022-08-17T19:48:31.660Z,58.57
2022-08-17T19:50:59.655Z,58.79
2022-08-17T19:53:41.997Z,58.90
2022-08-17T19:56:38.552Z,59.00
2022-08-17T19:59:23.916Z,59.33
2022-08-17T20:01:57.473Z,59.31
2022-08-17T20:04:31.498Z,59.54
2022-08-17T20:07:03.071Z,59.72
2022-08-17T20:09:39.641Z,59.67
2022-08-17T20:12:08.779Z,59.96
2022-08-17T20:14:55.212Z,60.04
2022-08-17T20:17:28.268Z,60.19
2022-08-17T20:20:01.336Z,60.16
2022-08-17T20:22:50.370Z,60.11
2022-08-17T20:25:30.254Z,60.42
2022-08-17T20:28:05.983Z,60.44
2022-08-17T20:30:36.641Z,60.41
2022-08-17T20:33:03.757Z,60.55
2022-08-17T20:35:34.184Z,60.67
2022-08-17T20:38:03.294Z,60.81
2022-08-17T20:40:29.434Z,60.98
2022-08-17T20:42:55.943Z,60.97
2022-08-17T20:45:25.338Z,61.28
2022-08-17T20:48:15.982Z,61.29
2022-08-17T20:50:40.776Z,61.26
2022-08-17T20:53:08.920Z,61.43
2022-08-17T20:55:35.731Z,61.35
2022-08-17T20:58:30.616Z,61.33
2022-08-17T21:01:01.813Z,61.53
2022-08-17T21:03:28.165Z,61.68
2022-08-17T21:06:17.514Z,61.78
2022-08-17T21:08:58.204Z,61.92
2022-08-17T21:12:03.262Z,62.05
2022-08-17T21:14:26.161Z,62.04
2022-08-17T21:17:11.523Z,62.00
2022-08-17T21:20:00.242Z,62.53
2022-08-17T21:22:27.865Z,62.48
2022-08-17T21:25:06.326Z,62.57
2022-08-17T21:27:51.327Z,62.74
2022-08-17T21:30:23.324Z,62.77
2022-08-17T21:33:14.800Z,62.87
2022-08-17T21:35:49.357Z,62.96
2022-08-17T21:38:16.599Z,62.93
2022-08-17T21:40:44.037Z,63.01
2022-08-17T21:43:22.888Z,63.31
2022-08-17T21:45:56.965Z,63.31
2022-08-17T21:48:24.674Z,63.23
2022-08-17T21:51:03.081Z,63.14
2022-08-17T21:53:37.390Z,63.67
2022-08-17T21:56:04.131Z,63.68
2022-08-17T21:58:31.730Z,63.76
2022-08-17T22:01:13.344Z,63.68
2022-08-17T22:03:39.696Z,63.62
2022-08-17T22:06:25.719Z,63.79
2022-08-17T22:09:03.361Z,63.79
2022-08-17T22:11:31.057Z,63.89
2022-08-17T22:14:00.646Z,64.10
2022-08-17T22:16:31.788Z,64.17
2022-08-17T22:18:58.363Z,63.99
2022-08-17T22:21:25.303Z,64.49
2022-08-17T22:24:05.136Z,64.54
2022-08-17T22:26:50.126Z,64.72
2022-08-17T22:29:35.260Z,64.59
2022-08-17T22:32:01.509Z,64.66
2022-08-17T22:34:27.701Z,64.73
2022-08-17T22:37:12.515Z,64.70
2022-08-17T22:39:39.707Z,64.79
2022-08-17T22:42:07.802Z,65.00
2022-08-17T22:44:36.939Z,65.15
2022-08-17T22:47:11.426Z,65.02
2022-08-17T22:49:53.264Z,65.19
2022-08-17T22:52:22.852Z,65.24
2022-08-17T22:55:09.594Z,65.29
2022-08-17T22:57:54.993Z,65.30
2022-08-17T23:00:30.713Z,65.42
2022-08-17T23:03:06.016Z,65.22
2022-08-17T23:05:33.495Z,65.30
2022-08-17T23:07:59.755Z,65.33
2022-08-17T23:10:26.411Z,65.31
2022-08-17T23:12:56.140Z,65.58
2022-08-17T23:15:23.617Z,65.48
2022-08-17T23:17:49.840Z,65.61
2022-08-17T23:20:16.939Z,65.57
2022-08-17T23:22:51.844Z,65.68
2022-08-17T23:25:27.162Z,65.50
2022-08-17T23:27:53.930Z,65.52
2022-08-17T23:30:22.485Z,65.66
2022-08-17T23:32:53.447Z,65.67
2022-08-17T23:35:20.477Z,65.64
2022-08-17T23:38:09.918Z,65.89
2022-08-17T23:40:37.029Z,65.85
2022-08-17T23:43:09.787Z,66.16
2022-08-17T23:45:51.760Z,66.15
2022-08-17T23:48:30.349Z,66.19
2022-08-17T23:51:13.642Z,66.04
2022-08-17T23:53:41.342Z,66.13
2022-08-17T23:56:10.904Z,66.22
2022-08-17T23:58:39.016Z,66.39
